createdAt,value
2022-09-22T00:01:17.587Z,91.70
2022-09-22T00:03:48.509Z,91.90
2022-09-22T00:06:30.213Z,91.80
2022-09-22T00:09:01.830Z,92.30
2022-09-22T00:11:37.493Z,92.40
2022-09-22T00:14:08.193Z,92.10
2022-09-22T00:16:47.392Z,92.50
2022-09-22T00:19:29.607Z,92.90
2022-09-22T00:21:56.426Z,92.70
2022-09-22T00:24:24.607Z,92.40
2022-09-22T00:26:56.588Z,92.60
2022-09-22T00:29:24.284Z,92.60
2022-09-22T00:31:51.322Z,92.90
2022-09-22T00:34:20.705Z,92.40
2022-09-22T00:36:48.473Z,92.80
2022-09-22T00:39:16.721Z,92.60
2022-09-22T00:41:45.715Z,92.70
2022-09-22T00:44:21.388Z,92.80
2022-09-22T00:46:52.986Z,92.80
2022-09-22T00:49:25.415Z,93.00
2022-09-22T00:51:52.238Z,92.60
2022-09-22T00:54:19.321Z,93.10
2022-09-22T00:57:01.557Z,93.10
2022-09-22T00:59:28.370Z,93.10
2022-09-22T01:01:55.292Z,93.10
2022-09-22T01:04:23.711Z,92.90
2022-09-22T01:06:51.891Z,93.10
2022-09-22T01:09:18.617Z,93.50
2022-09-22T01:11:45.382Z,93.60
2022-09-22T01:14:35.367Z,93.40
2022-09-22T01:17:20.705Z,92.90
2022-09-22T01:20:15.234Z,92.70
2022-09-22T01:23:18.887Z,93.10
2022-09-22T01:25:57.686Z,93.30
2022-09-22T01:28:45.875Z,93.40
2022-09-22T01:31:26.210Z,94.00
2022-09-22T01:34:16.794Z,94.00
2022-09-22T01:37:02.794Z,93.40
2022-09-22T01:40:07.836Z,92.80
2022-09-22T01:42:52.629Z,92.80
2022-09-22T01:45:24.023Z,93.40
2022-09-22T01:48:02.260Z,94.10
2022-09-22T01:50:53.991Z,93.70
2022-09-22T01:53:24.481Z,93.30
2022-09-22T01:55:59.090Z,93.10
2022-09-22T01:58:47.176Z,93.10
2022-09-22T02:01:28.703Z,93.20
2022-09-22T02:04:04.221Z,93.40
2022-09-22T02:06:37.493Z,93.90
2022-09-22T02:09:11.066Z,93.80
2022-09-22T02:11:39.635Z,93.90
2022-09-22T02:14:07.189Z,94.00
2022-09-22T02:16:34.838Z,93.80
2022-09-22T02:19:24.923Z,93.20
2022-09-22T02:21:51.716Z,93.50
2022-09-22T02:24:33.458Z,94.00
2022-09-22T02:27:03.753Z,94.00
2022-09-22T02:29:33.987Z,93.80
2022-09-22T02:32:05.044Z,94.00
2022-09-22T02:34:32.077Z,93.60
2022-09-22T02:37:13.883Z,93.50
2022-09-22T02:40:09.920Z,93.90
2022-09-22T02:42:56.093Z,93.90
2022-09-22T02:45:28.940Z,93.70
2022-09-22T02:48:24.359Z,93.20
2022-09-22T02:50:53.357Z,93.60
2022-09-22T02:53:20.199Z,93.70
2022-09-22T02:55:47.129Z,93.60
2022-09-22T02:58:15.990Z,93.80
2022-09-22T03:00:44.121Z,93.80
2022-09-22T03:03:11.591Z,94.10
2022-09-22T03:05:39.163Z,94.10
2022-09-22T03:08:06.577Z,94.00
2022-09-22T03:10:33.635Z,94.00
2022-09-22T03:13:15.961Z,93.80
2022-09-22T03:15:45.568Z,94.00
2022-09-22T03:18:12.741Z,94.00
2022-09-22T03:20:39.642Z,93.90
2022-09-22T03:23:06.444Z,93.30
2022-09-22T03:25:33.401Z,93.20
2022-09-22T03:28:00.187Z,93.30
2022-09-22T03:30:26.993Z,93.30
2022-09-22T03:32:53.732Z,94.20
2022-09-22T03:35:20.523Z,94.00
2022-09-22T03:37:47.332Z,93.90
2022-09-22T03:40:14.330Z,93.70
2022-09-22T03:42:41.210Z,94.20
2022-09-22T03:45:09.075Z,94.10
2022-09-22T03:47:35.789Z,94.20
2022-09-22T03:50:02.924Z,93.90
2022-09-22T03:52:31.344Z,93.90
2022-09-22T03:54:58.058Z,94.10
2022-09-22T03:57:24.757Z,94.10
2022-09-22T03:59:52.098Z,93.90
2022-09-22T04:02:18.845Z,93.60
2022-09-22T04:04:45.561Z,93.80
2022-09-22T04:07:12.266Z,93.90
2022-09-22T04:09:39.830Z,93.70
2022-09-22T04:12:06.723Z,93.90
2022-09-22T04:14:33.751Z,94.00
2022-09-22T04:17:00.496Z,94.00
2022-09-22T04:19:27.296Z,93.30
2022-09-22T04:21:57.194Z,93.70
2022-09-22T04:24:24.450Z,93.60
2022-09-22T04:27:18.044Z,93.60
2022-09-22T04:29:38.597Z,93.40
2022-09-22T04:32:05.626Z,93.50
2022-09-22T04:34:32.548Z,93.70
2022-09-22T04:36:59.344Z,93.70
2022-09-22T04:39:28.536Z,93.60
2022-09-22T04:41:55.501Z,93.90
2022-09-22T04:44:22.631Z,93.70
2022-09-22T04:46:50.377Z,93.80
2022-09-22T04:49:18.318Z,93.60
2022-09-22T04:51:45.257Z,93.80
2022-09-22T04:54:14.737Z,93.60
2022-09-22T04:56:43.804Z,93.60
2022-09-22T04:59:10.563Z,93.80
2022-09-22T05:01:38.207Z,93.40
2022-09-22T05:04:05.179Z,93.50
2022-09-22T05:06:32.046Z,93.50
2022-09-22T05:08:58.813Z,93.40
2022-09-22T05:11:25.541Z,93.00
2022-09-22T05:13:52.346Z,92.80
2022-09-22T05:16:19.254Z,92.50
2022-09-22T05:18:46.936Z,92.50
2022-09-22T05:21:13.659Z,92.50
2022-09-22T05:23:40.376Z,92.90
2022-09-22T05:26:07.135Z,92.40
2022-09-22T05:28:33.977Z,91.80
2022-09-22T05:31:00.769Z,90.90
2022-09-22T05:33:27.630Z,91.30
2022-09-22T05:35:54.392Z,92.60
2022-09-22T05:38:21.104Z,91.90
2022-09-22T05:40:47.953Z,92.20
2022-09-22T05:43:15.591Z,92.30
2022-09-22T05:45:46.947Z,92.60
2022-09-22T05:48:14.059Z,93.10
2022-09-22T05:50:40.987Z,92.50
2022-09-22T05:53:10.189Z,93.40
2022-09-22T05:55:38.758Z,93.50
2022-09-22T05:58:05.731Z,93.20
2022-09-22T06:00:33.248Z,93.50
2022-09-22T06:03:00.104Z,93.60
2022-09-22T06:05:27.004Z,93.60
2022-09-22T06:08:03.342Z,93.50
2022-09-22T06:10:31.729Z,93.90
2022-09-22T06:13:03.375Z,93.10
2022-09-22T06:15:33.707Z,92.70
2022-09-22T06:18:02.028Z,92.80
2022-09-22T06:20:29.207Z,93.40
2022-09-22T06:22:56.614Z,93.20
2022-09-22T06:25:23.791Z,93.40
2022-09-22T06:28:01.859Z,92.70
2022-09-22T06:30:30.741Z,92.50
2022-09-22T06:32:57.936Z,92.80
2022-09-22T06:35:24.638Z,93.30
2022-09-22T06:38:00.255Z,92.90
2022-09-22T06:40:27.739Z,92.10
2022-09-22T06:42:58.672Z,92.30
2022-09-22T06:45:26.852Z,92.30
2022-09-22T06:48:07.548Z,92.80
2022-09-22T06:50:36.797Z,93.00
2022-09-22T06:53:07.183Z,92.10
2022-09-22T06:55:35.560Z,92.40
2022-09-22T06:58:02.954Z,92.20
2022-09-22T07:00:32.891Z,91.80
2022-09-22T07:03:08.598Z,91.10
2022-09-22T07:05:37.159Z,91.30
2022-09-22T07:08:08.714Z,92.00
2022-09-22T07:10:37.875Z,92.20
2022-09-22T07:13:06.111Z,92.10
2022-09-22T07:15:35.495Z,91.50
2022-09-22T07:18:03.447Z,92.00
2022-09-22T07:20:30.383Z,92.70
2022-09-22T07:23:00.837Z,92.10
2022-09-22T07:25:28.957Z,91.90
2022-09-22T07:27:57.755Z,91.80
2022-09-22T07:30:24.995Z,91.40
2022-09-22T07:32:51.964Z,90.80
2022-09-22T07:35:18.658Z,90.80
2022-09-22T07:37:46.313Z,91.10
2022-09-22T07:40:14.794Z,90.90
2022-09-22T07:42:41.571Z,91.60
2022-09-22T07:45:12.706Z,91.90
2022-09-22T07:47:58.277Z,91.60
2022-09-22T07:50:25.034Z,91.90
2022-09-22T07:52:52.848Z,91.20
2022-09-22T07:55:24.147Z,91.20
2022-09-22T07:57:58.285Z,91.40
2022-09-22T08:00:27.390Z,91.50
2022-09-22T08:02:55.910Z,90.30
2022-09-22T08:05:24.450Z,88.90
2022-09-22T08:07:51.472Z,90.10
2022-09-22T08:10:19.473Z,90.50
2022-09-22T08:12:46.149Z,89.20
2022-09-22T08:15:12.920Z,89.60
2022-09-22T08:17:40.721Z,89.10
2022-09-22T08:20:09.164Z,89.30
2022-09-22T08:22:36.073Z,87.60
2022-09-22T08:25:03.009Z,89.20
2022-09-22T08:27:30.408Z,87.80
2022-09-22T08:29:57.160Z,89.30
2022-09-22T08:32:26.591Z,88.70
2022-09-22T08:34:57.888Z,89.40
2022-09-22T08:37:26.424Z,88.60
2022-09-22T08:39:53.937Z,88.50
2022-09-22T08:42:23.379Z,89.20
2022-09-22T08:45:09.600Z,89.70
2022-09-22T08:48:01.074Z,89.20
2022-09-22T08:51:05.546Z,89.80
2022-09-22T08:53:37.680Z,89.60
2022-09-22T08:56:26.097Z,90.60
2022-09-22T08:59:09.110Z,89.00
2022-09-22T09:02:19.813Z,88.40
2022-09-22T09:05:06.161Z,88.30
2022-09-22T09:08:00.196Z,88.30
2022-09-22T09:10:36.963Z,87.00
2022-09-22T09:13:12.391Z,86.90
2022-09-22T09:15:58.705Z,87.30
2022-09-22T09:18:33.882Z,87.00
2022-09-22T09:21:06.370Z,85.60
2022-09-22T09:26:34.344Z,85.30
2022-09-22T09:29:06.289Z,87.00
2022-09-22T09:31:36.564Z,86.30
2022-09-22T09:34:08.062Z,86.10
2022-09-22T09:36:41.492Z,85.30
2022-09-22T09:39:13.364Z,85.40
2022-09-22T09:41:41.749Z,86.30
2022-09-22T09:44:20.459Z,86.80
2022-09-22T09:47:17.297Z,85.10
2022-09-22T09:49:44.103Z,83.80
2022-09-22T09:52:13.093Z,84.40
2022-09-22T09:54:42.375Z,83.60
2022-09-22T09:57:20.313Z,84.90
2022-09-22T10:00:33.185Z,83.80
2022-09-22T10:03:03.101Z,82.70
2022-09-22T10:05:32.326Z,81.00
2022-09-22T10:08:03.094Z,81.40
2022-09-22T10:10:29.920Z,81.40
2022-09-22T10:13:05.505Z,80.60
2022-09-22T10:15:38.114Z,79.60
2022-09-22T10:18:29.547Z,80.40
2022-09-22T10:21:07.162Z,78.60
2022-09-22T10:23:34.653Z,81.60
2022-09-22T10:26:21.862Z,79.60
2022-09-22T10:29:13.007Z,76.70
2022-09-22T10:32:00.659Z,77.70
2022-09-22T10:34:32.661Z,75.00
2022-09-22T10:37:01.123Z,72.20
2022-09-22T10:39:37.070Z,75.30
2022-09-22T10:42:08.034Z,70.20
2022-09-22T10:44:39.269Z,70.30
2022-09-22T10:47:27.324Z,69.60
2022-09-22T10:50:27.902Z,69.80
2022-09-22T10:53:22.062Z,66.10
2022-09-22T10:56:25.069Z,65.80
2022-09-22T10:59:13.294Z,69.40
2022-09-22T11:01:49.556Z,66.30
2022-09-22T11:04:42.031Z,65.30
2022-09-22T11:07:45.712Z,64.80
2022-09-22T11:11:10.562Z,67.30
2022-09-22T11:13:49.012Z,61.70
2022-09-22T11:16:41.076Z,60.40
2022-09-22T11:19:19.897Z,59.90
2022-09-22T11:21:58.381Z,61.90
2022-09-22T11:24:36.237Z,59.30
2022-09-22T11:27:04.483Z,62.60
2022-09-22T11:29:45.314Z,61.20
2022-09-22T11:32:44.189Z,57.30
2022-09-22T11:35:27.874Z,59.30
2022-09-22T11:38:25.564Z,55.00
2022-09-22T11:40:55.123Z,56.20
2022-09-22T11:43:37.166Z,56.70
2022-09-22T11:46:22.123Z,53.60
2022-09-22T11:49:16.764Z,53.00
2022-09-22T11:52:17.537Z,54.20
2022-09-22T11:55:25.949Z,52.10
2022-09-22T11:57:59.539Z,52.00
2022-09-22T12:00:33.290Z,51.40
2022-09-22T12:03:06.184Z,53.60
2022-09-22T12:05:54.486Z,54.90
2022-09-22T12:08:24.623Z,54.40
2022-09-22T12:10:52.725Z,54.80
2022-09-22T12:13:33.308Z,56.20
2022-09-22T12:16:22.721Z,55.70
2022-09-22T12:18:58.780Z,56.40
2022-09-22T12:21:47.411Z,57.00
2022-09-22T12:24:15.060Z,56.20
2022-09-22T12:26:47.229Z,56.30
2022-09-22T12:29:14.279Z,55.80
2022-09-22T12:31:43.740Z,58.80
2022-09-22T12:34:23.487Z,58.20
2022-09-22T12:36:56.366Z,58.20
2022-09-22T12:39:24.544Z,55.40
2022-09-22T12:42:06.818Z,51.20
2022-09-22T12:44:42.891Z,45.90
2022-09-22T12:47:26.836Z,45.10
2022-09-22T12:49:59.034Z,41.50
2022-09-22T12:52:41.356Z,40.70
2022-09-22T12:55:29.500Z,38.50
2022-09-22T12:57:58.069Z,38.50
2022-09-22T13:00:41.116Z,37.70
2022-09-22T13:03:26.440Z,36.70
2022-09-22T13:05:58.502Z,36.30
2022-09-22T13:08:26.327Z,36.50
2022-09-22T13:10:56.553Z,34.50
2022-09-22T13:13:36.537Z,31.40
2022-09-22T13:16:15.388Z,33.30
2022-09-22T13:18:58.666Z,35.60
2022-09-22T13:21:27.363Z,34.30
2022-09-22T13:23:54.286Z,35.40
2022-09-22T13:26:32.833Z,36.00
2022-09-22T13:29:15.807Z,38.40
2022-09-22T13:31:48.268Z,41.20
2022-09-22T13:34:29.068Z,38.20
2022-09-22T13:37:02.300Z,37.20
2022-09-22T13:39:34.001Z,41.40
2022-09-22T13:42:22.462Z,41.90
2022-09-22T13:44:58.939Z,42.70
2022-09-22T13:47:27.953Z,42.80
2022-09-22T13:50:01.557Z,40.60
2022-09-22T13:52:32.109Z,43.50
2022-09-22T13:55:06.158Z,42.60
2022-09-22T13:57:37.191Z,46.40
2022-09-22T14:00:06.885Z,48.50
2022-09-22T14:02:33.779Z,46.50
2022-09-22T14:05:08.636Z,45.40
2022-09-22T14:07:49.504Z,51.20
2022-09-22T14:10:23.884Z,51.30
2022-09-22T14:12:51.240Z,48.00
2022-09-22T14:15:43.336Z,46.70
2022-09-22T14:18:26.967Z,44.00
2022-09-22T14:20:58.084Z,45.30
2022-09-22T14:23:31.597Z,47.20
2022-09-22T14:26:00.432Z,42.20
2022-09-22T14:28:31.233Z,36.90
2022-09-22T14:30:57.997Z,34.40
2022-09-22T14:33:28.864Z,33.70
2022-09-22T14:36:05.491Z,31.40
2022-09-22T14:38:43.009Z,33.20
2022-09-22T14:41:25.177Z,37.40
2022-09-22T14:43:53.044Z,38.00
2022-09-22T14:46:33.841Z,35.80
2022-09-22T14:49:36.390Z,36.40
2022-09-22T14:52:06.150Z,33.70
2022-09-22T14:54:34.918Z,33.40
2022-09-22T14:57:08.199Z,33.70
2022-09-22T14:59:55.640Z,33.10
2022-09-22T15:02:33.751Z,34.50
2022-09-22T15:05:03.446Z,34.90
2022-09-22T15:07:38.978Z,31.70
2022-09-22T15:10:18.944Z,31.30
2022-09-22T15:12:49.585Z,33.30
2022-09-22T15:15:29.099Z,32.90
2022-09-22T15:18:15.371Z,33.60
2022-09-22T15:20:50.746Z,34.30
2022-09-22T15:29:11.787Z,34.60
2022-09-22T15:31:39.678Z,34.50
2022-09-22T15:34:07.395Z,36.10
2022-09-22T15:36:39.767Z,35.80
2022-09-22T15:39:12.973Z,35.60
2022-09-22T15:41:39.623Z,36.00
2022-09-22T15:44:06.500Z,36.00
2022-09-22T15:46:35.721Z,38.00
2022-09-22T15:49:07.284Z,37.90
2022-09-22T15:51:34.756Z,39.00
2022-09-22T15:54:02.634Z,39.70
2022-09-22T15:56:30.381Z,41.60
2022-09-22T15:59:01.277Z,42.80
2022-09-22T16:01:29.301Z,42.20
2022-09-22T16:04:00.083Z,42.70
2022-09-22T16:06:28.057Z,42.40
2022-09-22T16:12:39.077Z,41.60
2022-09-22T16:15:06.519Z,44.10
2022-09-22T16:17:33.250Z,47.10
2022-09-22T16:20:00.846Z,49.90
2022-09-22T16:22:27.870Z,52.20
2022-09-22T16:24:54.860Z,53.10
2022-09-22T16:27:21.575Z,54.80
2022-09-22T16:29:48.598Z,57.60
2022-09-22T16:32:21.334Z,58.40
2022-09-22T16:34:48.067Z,58.20
2022-09-22T16:37:15.100Z,59.50
2022-09-22T16:39:41.855Z,63.90
2022-09-22T16:42:09.782Z,66.30
2022-09-22T16:44:36.592Z,68.00
2022-09-22T16:47:04.737Z,69.60
2022-09-22T16:49:33.400Z,71.00
2022-09-22T16:52:00.588Z,72.40
2022-09-22T16:54:27.597Z,73.00
2022-09-22T16:56:54.433Z,73.40
2022-09-22T16:59:22.868Z,73.80
2022-09-22T17:01:50.232Z,74.40
2022-09-22T17:04:19.285Z,74.90
2022-09-22T17:06:46.734Z,75.00
2022-09-22T17:09:17.036Z,76.30
2022-09-22T17:11:45.891Z,76.70
2022-09-22T17:14:15.409Z,76.70
2022-09-22T17:16:49.243Z,77.30
2022-09-22T17:19:22.136Z,77.50
2022-09-22T17:21:51.909Z,78.90
2022-09-22T17:24:19.366Z,78.90
2022-09-22T17:26:49.529Z,80.00
2022-09-22T17:29:27.811Z,79.40
2022-09-22T17:31:59.989Z,80.50
2022-09-22T17:34:28.523Z,80.50
2022-09-22T17:36:56.176Z,81.70
2022-09-22T17:39:24.627Z,81.10
2022-09-22T17:41:51.601Z,81.90
2022-09-22T17:44:21.008Z,82.30
2022-09-22T17:47:07.873Z,81.90
2022-09-22T17:49:53.030Z,81.90
2022-09-22T17:52:28.551Z,82.00
2022-09-22T17:55:06.857Z,82.50
2022-09-22T17:57:45.456Z,82.60
2022-09-22T18:00:20.881Z,83.40
2022-09-22T18:02:49.412Z,82.90
2022-09-22T18:05:19.670Z,83.20
2022-09-22T18:07:49.462Z,85.10
2022-09-22T18:10:19.625Z,85.80
2022-09-22T18:12:46.390Z,85.10
2022-09-22T18:15:14.042Z,85.10
2022-09-22T18:17:42.502Z,85.20
2022-09-22T18:20:14.679Z,85.20
2022-09-22T18:22:48.248Z,85.90
2022-09-22T18:25:16.492Z,85.70
2022-09-22T18:27:44.115Z,85.80
2022-09-22T18:30:15.395Z,86.30
2022-09-22T18:32:42.821Z,86.90
2022-09-22T18:35:09.781Z,86.90
2022-09-22T18:37:36.514Z,86.80
2022-09-22T18:40:03.813Z,86.80
2022-09-22T18:42:31.162Z,86.50
2022-09-22T18:44:57.937Z,86.60
2022-09-22T18:47:24.921Z,86.60
2022-09-22T18:49:51.931Z,87.30
2022-09-22T18:52:24.315Z,86.60
2022-09-22T18:54:55.957Z,87.10
2022-09-22T18:57:25.401Z,87.40
2022-09-22T18:59:53.840Z,87.50
2022-09-22T19:02:22.350Z,87.70
2022-09-22T19:04:51.460Z,87.40
2022-09-22T19:07:41.576Z,86.50
2022-09-22T19:10:11.862Z,86.80
2022-09-22T19:12:42.411Z,87.60
2022-09-22T19:15:15.374Z,88.00
2022-09-22T19:17:44.797Z,88.10
2022-09-22T19:20:14.508Z,88.00
2022-09-22T19:22:41.430Z,88.10
2022-09-22T19:25:08.772Z,87.80
2022-09-22T19:27:35.823Z,87.90
2022-09-22T19:30:02.823Z,87.40
2022-09-22T19:32:30.554Z,88.20
2022-09-22T19:34:57.368Z,88.00
2022-09-22T19:37:25.154Z,88.00
2022-09-22T19:39:51.935Z,87.80
2022-09-22T19:42:18.947Z,87.40
2022-09-22T19:44:46.243Z,88.10
2022-09-22T19:47:13.015Z,88.70
2022-09-22T19:49:41.878Z,88.90
2022-09-22T19:52:09.291Z,88.40
2022-09-22T19:54:36.038Z,88.10
2022-09-22T19:57:02.966Z,88.10
2022-09-22T19:59:29.852Z,87.90
2022-09-22T20:01:56.679Z,88.00
2022-09-22T20:04:23.579Z,87.60
2022-09-22T20:06:50.854Z,87.50
2022-09-22T20:09:18.351Z,88.90
2022-09-22T20:11:48.651Z,89.50
2022-09-22T20:14:22.761Z,89.60
2022-09-22T20:17:16.484Z,89.20
2022-09-22T20:19:44.568Z,88.80
2022-09-22T20:22:23.054Z,89.10
2022-09-22T20:24:54.680Z,89.70
2022-09-22T20:27:22.838Z,89.30
2022-09-22T20:29:52.122Z,88.90
2022-09-22T20:32:22.401Z,88.80
2022-09-22T20:34:49.085Z,88.60
2022-09-22T20:37:15.824Z,89.40
2022-09-22T20:39:42.607Z,89.30
2022-09-22T20:42:09.603Z,89.10
2022-09-22T20:44:37.705Z,88.40
2022-09-22T20:47:05.740Z,88.40
2022-09-22T20:49:34.773Z,88.40
2022-09-22T20:52:01.847Z,89.00
2022-09-22T20:54:28.846Z,89.40
2022-09-22T20:56:55.702Z,89.80
2022-09-22T20:59:22.374Z,89.30
2022-09-22T21:01:49.228Z,89.60
2022-09-22T21:04:16.380Z,89.00
2022-09-22T21:06:43.187Z,89.30
2022-09-22T21:09:29.149Z,89.40
2022-09-22T21:11:56.579Z,89.20
2022-09-22T21:14:23.382Z,89.30
2022-09-22T21:16:51.405Z,89.90
2022-09-22T21:19:18.288Z,90.40
2022-09-22T21:21:45.199Z,90.20
2022-09-22T21:24:11.873Z,89.60
2022-09-22T21:26:38.706Z,89.40
2022-09-22T21:29:05.436Z,89.80
2022-09-22T21:31:32.694Z,89.60
2022-09-22T21:33:59.451Z,89.80
2022-09-22T21:36:26.467Z,89.70
2022-09-22T21:38:57.761Z,89.40
2022-09-22T21:41:26.980Z,89.30
2022-09-22T21:43:54.226Z,89.20
2022-09-22T21:46:25.069Z,89.10
2022-09-22T21:48:57.814Z,88.80
2022-09-22T21:51:24.652Z,89.30
2022-09-22T21:53:52.940Z,89.30
2022-09-22T21:56:21.459Z,89.50
2022-09-22T21:58:50.875Z,89.90
2022-09-22T22:01:20.270Z,90.40
2022-09-22T22:03:48.484Z,90.40
2022-09-22T22:06:23.426Z,90.50
2022-09-22T22:08:51.290Z,91.10
2022-09-22T22:11:23.577Z,91.40
2022-09-22T22:13:54.965Z,90.60
2022-09-22T22:16:27.511Z,90.80
2022-09-22T22:18:54.182Z,90.70
2022-09-22T22:21:24.274Z,89.80
2022-09-22T22:23:53.435Z,89.70
2022-09-22T22:26:25.425Z,90.60
2022-09-22T22:28:52.702Z,90.80
2022-09-22T22:31:22.601Z,90.40
2022-09-22T22:33:49.847Z,90.20
2022-09-22T22:36:18.227Z,90.30
2022-09-22T22:38:45.680Z,90.00
2022-09-22T22:41:14.934Z,89.60
2022-09-22T22:43:42.416Z,89.60
2022-09-22T22:46:11.171Z,90.10
2022-09-22T22:48:38.075Z,90.00
2022-09-22T22:51:15.200Z,90.10
2022-09-22T22:53:42.503Z,90.60
2022-09-22T22:56:21.620Z,90.20
2022-09-22T22:58:49.642Z,90.10
2022-09-22T23:01:27.139Z,89.90
2022-09-22T23:03:59.206Z,90.20
2022-09-22T23:06:28.330Z,90.10
2022-09-22T23:08:55.218Z,90.00
2022-09-22T23:11:24.558Z,90.20
2022-09-22T23:13:53.572Z,90.10
2022-09-22T23:16:23.735Z,90.10
2022-09-22T23:18:51.806Z,90.20
2022-09-22T23:21:20.722Z,90.20
2022-09-22T23:23:49.201Z,89.50
2022-09-22T23:26:17.712Z,90.10
2022-09-22T23:28:44.843Z,90.70
2022-09-22T23:31:17.974Z,91.10
2022-09-22T23:33:46.790Z,91.10
2022-09-22T23:36:19.471Z,90.30
2022-09-22T23:38:46.558Z,89.70
2022-09-22T23:41:13.373Z,90.00
2022-09-22T23:43:40.353Z,89.50
2022-09-22T23:46:07.667Z,89.90
2022-09-22T23:48:35.869Z,89.80
2022-09-22T23:51:03.632Z,89.50
2022-09-22T23:53:33.969Z,89.40
2022-09-22T23:56:02.359Z,89.40
2022-09-22T23:58:30.397Z,89.10
